sensor_id;sensor_type;location;lat;lon;timestamp;P1;durP1;ratioP1;P2;durP2;ratioP2
5795;SDS011;2924;51.458;7.046;2023-06-14T00:01:34;5.80;;;4.93;;
5795;SDS011;2924;51.458;7.046;2023-06-14T00:04:00;7.80;;;5.73;;
5795;SDS011;2924;51.458;7.046;2023-06-14T00:06:26;12.23;;;5.90;;
5795;SDS011;2924;51.458;7.046;2023-06-14T00:08:53;9.10;;;5.60;;
5795;SDS011;2924;51.458;7.046;2023-06-14T00:11:19;17.53;;;6.47;;
5795;SDS011;2924;51.458;7.046;2023-06-14T00:13:45;8.93;;;6.50;;
5795;SDS011;2924;51.458;7.046;2023-06-14T00:16:11;11.33;;;5.07;;
5795;SDS011;2924;51.458;7.046;2023-06-14T00:18:37;12.43;;;5.57;;
5795;SDS011;2924;51.458;7.046;2023-06-14T00:21:03;6.00;;;5.30;;
5795;SDS011;2924;51.458;7.046;2023-06-14T00:23:29;7.30;;;5.13;;
5795;SDS011;2924;51.458;7.046;2023-06-14T00:25:54;9.20;;;4.70;;
5795;SDS011;2924;51.458;7.046;2023-06-14T00:28:20;26.63;;;5.23;;
5795;SDS011;2924;51.458;7.046;2023-06-14T00:30:45;18.40;;;6.17;;
5795;SDS011;2924;51.458;7.046;2023-06-14T00:33:11;6.67;;;5.60;;
5795;SDS011;2924;51.458;7.046;2023-06-14T00:35:37;7.87;;;5.40;;
5795;SDS011;2924;51.458;7.046;2023-06-14T00:38:03;7.97;;;4.93;;
5795;SDS011;2924;51.458;7.046;2023-06-14T00:40:28;9.47;;;5.50;;
5795;SDS011;2924;51.458;7.046;2023-06-14T00:42:54;9.53;;;5.50;;
5795;SDS011;2924;51.458;7.046;2023-06-14T00:45:20;8.40;;;4.70;;
5795;SDS011;2924;51.458;7.046;2023-06-14T00:47:45;10.43;;;6.57;;
5795;SDS011;2924;51.458;7.046;2023-06-14T00:50:12;4.63;;;4.23;;
5795;SDS011;2924;51.458;7.046;2023-06-14T00:52:38;7.57;;;5.23;;
5795;SDS011;2924;51.458;7.046;2023-06-14T00:55:05;5.90;;;5.30;;
5795;SDS011;2924;51.458;7.046;2023-06-14T00:57:31;8.13;;;4.90;;
5795;SDS011;2924;51.458;7.046;2023-06-14T00:59:57;8.73;;;5.50;;
5795;SDS011;2924;51.458;7.046;2023-06-14T01:02:23;14.63;;;4.90;;
5795;SDS011;2924;51.458;7.046;2023-06-14T01:04:51;10.03;;;4.43;;
5795;SDS011;2924;51.458;7.046;2023-06-14T01:07:32;8.73;;;4.77;;
5795;SDS011;2924;51.458;7.046;2023-06-14T01:13:08;14.67;;;5.13;;
5795;SDS011;2924;51.458;7.046;2023-06-14T01:15:40;6.23;;;4.50;;
5795;SDS011;2924;51.458;7.046;2023-06-14T01:18:08;6.10;;;4.67;;
5795;SDS011;2924;51.458;7.046;2023-06-14T01:20:42;6.70;;;5.00;;
5795;SDS011;2924;51.458;7.046;2023-06-14T01:23:10;5.80;;;5.03;;
5795;SDS011;2924;51.458;7.046;2023-06-14T01:25:40;7.33;;;4.10;;
5795;SDS011;2924;51.458;7.046;2023-06-14T01:28:09;13.10;;;4.97;;
5795;SDS011;2924;51.458;7.046;2023-06-14T01:30:38;7.20;;;4.63;;
5795;SDS011;2924;51.458;7.046;2023-06-14T01:33:09;7.27;;;4.43;;
5795;SDS011;2924;51.458;7.046;2023-06-14T01:35:37;5.20;;;4.70;;
5795;SDS011;2924;51.458;7.046;2023-06-14T01:38:03;5.60;;;4.50;;
5795;SDS011;2924;51.458;7.046;2023-06-14T01:40:29;8.07;;;4.70;;
5795;SDS011;2924;51.458;7.046;2023-06-14T01:42:56;6.00;;;4.17;;
5795;SDS011;2924;51.458;7.046;2023-06-14T01:45:23;7.00;;;4.50;;
5795;SDS011;2924;51.458;7.046;2023-06-14T01:47:49;4.27;;;3.83;;
5795;SDS011;2924;51.458;7.046;2023-06-14T01:50:15;6.00;;;3.97;;
5795;SDS011;2924;51.458;7.046;2023-06-14T01:52:40;7.90;;;4.30;;
5795;SDS011;2924;51.458;7.046;2023-06-14T01:55:06;12.40;;;4.67;;
5795;SDS011;2924;51.458;7.046;2023-06-14T01:57:33;6.23;;;3.57;;
5795;SDS011;2924;51.458;7.046;2023-06-14T01:59:58;5.70;;;4.40;;
5795;SDS011;2924;51.458;7.046;2023-06-14T02:02:24;5.30;;;4.07;;
5795;SDS011;2924;51.458;7.046;2023-06-14T02:04:49;6.57;;;4.23;;
5795;SDS011;2924;51.458;7.046;2023-06-14T02:07:15;7.70;;;3.93;;
5795;SDS011;2924;51.458;7.046;2023-06-14T02:09:41;6.37;;;4.53;;
5795;SDS011;2924;51.458;7.046;2023-06-14T02:12:07;7.67;;;4.70;;
5795;SDS011;2924;51.458;7.046;2023-06-14T02:14:33;11.53;;;4.37;;
5795;SDS011;2924;51.458;7.046;2023-06-14T02:16:59;6.13;;;4.27;;
5795;SDS011;2924;51.458;7.046;2023-06-14T02:19:26;6.20;;;5.20;;
5795;SDS011;2924;51.458;7.046;2023-06-14T02:21:51;7.07;;;4.40;;
5795;SDS011;2924;51.458;7.046;2023-06-14T02:24:17;7.93;;;4.00;;
5795;SDS011;2924;51.458;7.046;2023-06-14T02:26:43;7.23;;;4.43;;
5795;SDS011;2924;51.458;7.046;2023-06-14T02:29:08;7.00;;;4.17;;
5795;SDS011;2924;51.458;7.046;2023-06-14T02:31:36;5.33;;;4.43;;
5795;SDS011;2924;51.458;7.046;2023-06-14T02:34:02;6.40;;;4.30;;
5795;SDS011;2924;51.458;7.046;2023-06-14T02:36:27;10.53;;;5.10;;
5795;SDS011;2924;51.458;7.046;2023-06-14T02:38:55;6.97;;;4.57;;
5795;SDS011;2924;51.458;7.046;2023-06-14T02:41:22;7.50;;;4.20;;
5795;SDS011;2924;51.458;7.046;2023-06-14T02:43:48;8.70;;;4.13;;
5795;SDS011;2924;51.458;7.046;2023-06-14T02:46:14;4.10;;;3.37;;
5795;SDS011;2924;51.458;7.046;2023-06-14T02:48:40;10.47;;;4.47;;
5795;SDS011;2924;51.458;7.046;2023-06-14T02:51:05;5.93;;;3.67;;
5795;SDS011;2924;51.458;7.046;2023-06-14T02:53:31;5.33;;;4.33;;
5795;SDS011;2924;51.458;7.046;2023-06-14T02:55:56;8.87;;;4.70;;
5795;SDS011;2924;51.458;7.046;2023-06-14T02:58:22;5.87;;;3.70;;
5795;SDS011;2924;51.458;7.046;2023-06-14T03:00:49;5.10;;;3.70;;
5795;SDS011;2924;51.458;7.046;2023-06-14T03:03:17;5.20;;;4.17;;
5795;SDS011;2924;51.458;7.046;2023-06-14T03:05:44;6.90;;;4.00;;
5795;SDS011;2924;51.458;7.046;2023-06-14T03:08:15;8.63;;;4.13;;
5795;SDS011;2924;51.458;7.046;2023-06-14T03:10:44;8.23;;;3.93;;
5795;SDS011;2924;51.458;7.046;2023-06-14T03:13:11;7.67;;;4.37;;
5795;SDS011;2924;51.458;7.046;2023-06-14T03:15:37;5.97;;;3.77;;
5795;SDS011;2924;51.458;7.046;2023-06-14T03:18:03;8.10;;;4.27;;
5795;SDS011;2924;51.458;7.046;2023-06-14T03:20:29;8.77;;;4.40;;
5795;SDS011;2924;51.458;7.046;2023-06-14T03:22:58;4.93;;;3.03;;
5795;SDS011;2924;51.458;7.046;2023-06-14T03:25:27;6.87;;;4.13;;
5795;SDS011;2924;51.458;7.046;2023-06-14T03:27:54;18.33;;;4.30;;
5795;SDS011;2924;51.458;7.046;2023-06-14T03:30:20;6.70;;;4.50;;
5795;SDS011;2924;51.458;7.046;2023-06-14T03:32:46;5.53;;;3.83;;
5795;SDS011;2924;51.458;7.046;2023-06-14T03:35:11;6.00;;;4.20;;
5795;SDS011;2924;51.458;7.046;2023-06-14T03:37:42;4.87;;;3.97;;
5795;SDS011;2924;51.458;7.046;2023-06-14T03:40:12;4.53;;;3.80;;
5795;SDS011;2924;51.458;7.046;2023-06-14T03:42:38;8.40;;;3.70;;
5795;SDS011;2924;51.458;7.046;2023-06-14T03:45:04;5.67;;;3.87;;
5795;SDS011;2924;51.458;7.046;2023-06-14T03:47:31;7.03;;;3.73;;
5795;SDS011;2924;51.458;7.046;2023-06-14T03:49:57;6.37;;;3.43;;
5795;SDS011;2924;51.458;7.046;2023-06-14T03:52:22;14.50;;;4.00;;
5795;SDS011;2924;51.458;7.046;2023-06-14T03:54:48;13.20;;;3.70;;
5795;SDS011;2924;51.458;7.046;2023-06-14T03:57:14;5.20;;;3.20;;
5795;SDS011;2924;51.458;7.046;2023-06-14T03:59:40;9.33;;;3.57;;
5795;SDS011;2924;51.458;7.046;2023-06-14T04:02:06;8.63;;;3.03;;
5795;SDS011;2924;51.458;7.046;2023-06-14T04:04:32;7.47;;;3.60;;
5795;SDS011;2924;51.458;7.046;2023-06-14T04:06:58;5.30;;;3.17;;
5795;SDS011;2924;51.458;7.046;2023-06-14T04:09:25;3.57;;;3.27;;
5795;SDS011;2924;51.458;7.046;2023-06-14T04:11:54;5.20;;;3.40;;
5795;SDS011;2924;51.458;7.046;2023-06-14T04:14:20;7.23;;;3.53;;
5795;SDS011;2924;51.458;7.046;2023-06-14T04:16:46;4.10;;;3.40;;
5795;SDS011;2924;51.458;7.046;2023-06-14T04:19:12;3.40;;;2.60;;
5795;SDS011;2924;51.458;7.046;2023-06-14T04:21:38;7.00;;;3.60;;
5795;SDS011;2924;51.458;7.046;2023-06-14T04:24:04;10.50;;;4.23;;
5795;SDS011;2924;51.458;7.046;2023-06-14T04:26:29;7.73;;;3.90;;
5795;SDS011;2924;51.458;7.046;2023-06-14T04:28:58;5.67;;;3.90;;
5795;SDS011;2924;51.458;7.046;2023-06-14T04:31:27;7.30;;;3.33;;
5795;SDS011;2924;51.458;7.046;2023-06-14T04:33:54;9.57;;;3.80;;
5795;SDS011;2924;51.458;7.046;2023-06-14T04:36:20;13.10;;;3.60;;
5795;SDS011;2924;51.458;7.046;2023-06-14T04:38:46;18.60;;;4.00;;
5795;SDS011;2924;51.458;7.046;2023-06-14T04:41:14;8.87;;;3.30;;
5795;SDS011;2924;51.458;7.046;2023-06-14T04:43:41;4.90;;;3.70;;
5795;SDS011;2924;51.458;7.046;2023-06-14T04:46:08;6.67;;;3.17;;
5795;SDS011;2924;51.458;7.046;2023-06-14T04:48:36;12.27;;;3.97;;
5795;SDS011;2924;51.458;7.046;2023-06-14T04:51:06;11.93;;;3.67;;
5795;SDS011;2924;51.458;7.046;2023-06-14T04:53:35;5.53;;;3.70;;
5795;SDS011;2924;51.458;7.046;2023-06-14T04:56:01;8.90;;;3.30;;
5795;SDS011;2924;51.458;7.046;2023-06-14T04:58:27;9.70;;;3.50;;
5795;SDS011;2924;51.458;7.046;2023-06-14T05:00:53;17.30;;;3.80;;
5795;SDS011;2924;51.458;7.046;2023-06-14T05:03:20;6.27;;;3.10;;
5795;SDS011;2924;51.458;7.046;2023-06-14T05:05:46;6.60;;;3.20;;
5795;SDS011;2924;51.458;7.046;2023-06-14T05:08:13;11.83;;;3.13;;
5795;SDS011;2924;51.458;7.046;2023-06-14T05:10:38;5.43;;;3.03;;
5795;SDS011;2924;51.458;7.046;2023-06-14T05:13:04;9.03;;;3.47;;
5795;SDS011;2924;51.458;7.046;2023-06-14T05:15:29;9.33;;;3.40;;
5795;SDS011;2924;51.458;7.046;2023-06-14T05:17:55;12.33;;;3.70;;
5795;SDS011;2924;51.458;7.046;2023-06-14T05:20:21;6.83;;;3.23;;
5795;SDS011;2924;51.458;7.046;2023-06-14T05:22:49;6.27;;;3.37;;
5795;SDS011;2924;51.458;7.046;2023-06-14T05:25:21;8.80;;;4.87;;
5795;SDS011;2924;51.458;7.046;2023-06-14T05:27:47;5.60;;;3.40;;
5795;SDS011;2924;51.458;7.046;2023-06-14T05:30:14;5.10;;;3.43;;
5795;SDS011;2924;51.458;7.046;2023-06-14T05:32:40;10.00;;;4.07;;
5795;SDS011;2924;51.458;7.046;2023-06-14T05:35:06;5.50;;;3.57;;
5795;SDS011;2924;51.458;7.046;2023-06-14T05:37:32;7.47;;;4.13;;
5795;SDS011;2924;51.458;7.046;2023-06-14T05:39:58;15.87;;;4.10;;
5795;SDS011;2924;51.458;7.046;2023-06-14T05:42:23;12.80;;;4.10;;
5795;SDS011;2924;51.458;7.046;2023-06-14T05:44:49;8.30;;;3.13;;
5795;SDS011;2924;51.458;7.046;2023-06-14T05:47:14;6.57;;;3.70;;
5795;SDS011;2924;51.458;7.046;2023-06-14T05:49:41;6.47;;;3.87;;
5795;SDS011;2924;51.458;7.046;2023-06-14T05:52:07;5.77;;;2.80;;
5795;SDS011;2924;51.458;7.046;2023-06-14T05:54:33;6.63;;;3.80;;
5795;SDS011;2924;51.458;7.046;2023-06-14T05:56:58;5.03;;;4.53;;
5795;SDS011;2924;51.458;7.046;2023-06-14T05:59:26;16.73;;;4.07;;
5795;SDS011;2924;51.458;7.046;2023-06-14T06:01:52;17.23;;;3.37;;
5795;SDS011;2924;51.458;7.046;2023-06-14T06:04:17;7.10;;;2.80;;
5795;SDS011;2924;51.458;7.046;2023-06-14T06:06:43;4.30;;;3.53;;
5795;SDS011;2924;51.458;7.046;2023-06-14T06:09:10;7.70;;;3.47;;
5795;SDS011;2924;51.458;7.046;2023-06-14T06:11:35;20.17;;;3.37;;
5795;SDS011;2924;51.458;7.046;2023-06-14T06:14:01;5.80;;;3.03;;
5795;SDS011;2924;51.458;7.046;2023-06-14T06:16:27;7.93;;;3.17;;
5795;SDS011;2924;51.458;7.046;2023-06-14T06:18:52;9.00;;;2.57;;
5795;SDS011;2924;51.458;7.046;2023-06-14T06:21:18;6.13;;;2.80;;
5795;SDS011;2924;51.458;7.046;2023-06-14T06:23:44;6.03;;;3.03;;
5795;SDS011;2924;51.458;7.046;2023-06-14T06:26:09;9.40;;;2.53;;
5795;SDS011;2924;51.458;7.046;2023-06-14T06:28:35;5.97;;;2.43;;
5795;SDS011;2924;51.458;7.046;2023-06-14T06:31:00;5.40;;;2.50;;
5795;SDS011;2924;51.458;7.046;2023-06-14T06:33:26;4.93;;;2.20;;
5795;SDS011;2924;51.458;7.046;2023-06-14T06:35:52;4.67;;;2.17;;
5795;SDS011;2924;51.458;7.046;2023-06-14T06:38:17;18.40;;;3.10;;
5795;SDS011;2924;51.458;7.046;2023-06-14T06:40:43;3.10;;;2.60;;
5795;SDS011;2924;51.458;7.046;2023-06-14T06:43:09;5.13;;;2.53;;
5795;SDS011;2924;51.458;7.046;2023-06-14T06:45:38;7.03;;;2.20;;
5795;SDS011;2924;51.458;7.046;2023-06-14T06:48:07;3.33;;;1.53;;
5795;SDS011;2924;51.458;7.046;2023-06-14T06:50:35;8.13;;;2.23;;
5795;SDS011;2924;51.458;7.046;2023-06-14T06:53:01;5.40;;;2.03;;
5795;SDS011;2924;51.458;7.046;2023-06-14T06:55:27;5.90;;;2.13;;
5795;SDS011;2924;51.458;7.046;2023-06-14T06:57:52;8.03;;;2.00;;
5795;SDS011;2924;51.458;7.046;2023-06-14T07:00:19;5.17;;;2.67;;
5795;SDS011;2924;51.458;7.046;2023-06-14T07:02:45;6.80;;;1.60;;
5795;SDS011;2924;51.458;7.046;2023-06-14T07:05:11;2.60;;;1.70;;
5795;SDS011;2924;51.458;7.046;2023-06-14T07:07:36;5.77;;;2.30;;
5795;SDS011;2924;51.458;7.046;2023-06-14T07:10:03;2.17;;;2.00;;
5795;SDS011;2924;51.458;7.046;2023-06-14T07:12:33;2.23;;;1.60;;
5795;SDS011;2924;51.458;7.046;2023-06-14T07:15:01;4.83;;;1.67;;
5795;SDS011;2924;51.458;7.046;2023-06-14T07:17:26;8.30;;;1.73;;
5795;SDS011;2924;51.458;7.046;2023-06-14T07:19:52;2.83;;;2.33;;
5795;SDS011;2924;51.458;7.046;2023-06-14T07:22:18;3.63;;;1.90;;
5795;SDS011;2924;51.458;7.046;2023-06-14T07:24:44;5.60;;;1.80;;
5795;SDS011;2924;51.458;7.046;2023-06-14T07:27:10;4.73;;;1.50;;
5795;SDS011;2924;51.458;7.046;2023-06-14T07:29:38;4.73;;;2.57;;
5795;SDS011;2924;51.458;7.046;2023-06-14T07:32:03;5.63;;;1.53;;
5795;SDS011;2924;51.458;7.046;2023-06-14T07:34:29;3.10;;;1.90;;
5795;SDS011;2924;51.458;7.046;2023-06-14T07:36:55;11.00;;;1.80;;
5795;SDS011;2924;51.458;7.046;2023-06-14T07:39:21;4.57;;;1.50;;
5795;SDS011;2924;51.458;7.046;2023-06-14T07:41:46;3.37;;;1.93;;
5795;SDS011;2924;51.458;7.046;2023-06-14T07:44:12;3.03;;;1.57;;
5795;SDS011;2924;51.458;7.046;2023-06-14T07:46:38;3.93;;;2.00;;
5795;SDS011;2924;51.458;7.046;2023-06-14T07:49:04;6.67;;;2.50;;
5795;SDS011;2924;51.458;7.046;2023-06-14T07:51:30;4.43;;;1.97;;
5795;SDS011;2924;51.458;7.046;2023-06-14T07:53:55;5.97;;;1.70;;
5795;SDS011;2924;51.458;7.046;2023-06-14T07:56:21;5.87;;;2.43;;
5795;SDS011;2924;51.458;7.046;2023-06-14T07:58:48;5.43;;;2.20;;
5795;SDS011;2924;51.458;7.046;2023-06-14T08:01:13;10.47;;;2.23;;
5795;SDS011;2924;51.458;7.046;2023-06-14T08:03:40;3.83;;;2.17;;
5795;SDS011;2924;51.458;7.046;2023-06-14T08:06:06;1.70;;;1.60;;
5795;SDS011;2924;51.458;7.046;2023-06-14T08:08:32;2.10;;;1.50;;
5795;SDS011;2924;51.458;7.046;2023-06-14T08:10:58;1.90;;;1.80;;
5795;SDS011;2924;51.458;7.046;2023-06-14T08:13:23;2.77;;;1.90;;
5795;SDS011;2924;51.458;7.046;2023-06-14T08:15:49;5.07;;;2.30;;
5795;SDS011;2924;51.458;7.046;2023-06-14T08:18:15;2.10;;;1.80;;
5795;SDS011;2924;51.458;7.046;2023-06-14T08:20:40;1.80;;;1.70;;
5795;SDS011;2924;51.458;7.046;2023-06-14T08:23:06;2.50;;;1.83;;
5795;SDS011;2924;51.458;7.046;2023-06-14T08:25:33;5.53;;;2.13;;
5795;SDS011;2924;51.458;7.046;2023-06-14T08:27:59;3.57;;;1.80;;
5795;SDS011;2924;51.458;7.046;2023-06-14T08:30:25;4.00;;;1.67;;
5795;SDS011;2924;51.458;7.046;2023-06-14T08:32:51;7.30;;;2.00;;
5795;SDS011;2924;51.458;7.046;2023-06-14T08:35:17;4.13;;;1.80;;
5795;SDS011;2924;51.458;7.046;2023-06-14T08:37:43;9.50;;;2.00;;
5795;SDS011;2924;51.458;7.046;2023-06-14T08:40:16;14.80;;;2.30;;
5795;SDS011;2924;51.458;7.046;2023-06-14T08:42:46;3.23;;;2.23;;
5795;SDS011;2924;51.458;7.046;2023-06-14T08:45:17;2.47;;;2.07;;
5795;SDS011;2924;51.458;7.046;2023-06-14T08:47:44;9.23;;;2.23;;
5795;SDS011;2924;51.458;7.046;2023-06-14T08:50:10;3.87;;;2.33;;
5795;SDS011;2924;51.458;7.046;2023-06-14T08:52:37;2.27;;;2.07;;
5795;SDS011;2924;51.458;7.046;2023-06-14T08:55:15;4.20;;;2.10;;
5795;SDS011;2924;51.458;7.046;2023-06-14T08:57:42;2.50;;;1.67;;
5795;SDS011;2924;51.458;7.046;2023-06-14T09:00:10;2.63;;;2.13;;
5795;SDS011;2924;51.458;7.046;2023-06-14T09:02:38;2.03;;;1.73;;
5795;SDS011;2924;51.458;7.046;2023-06-14T09:05:08;2.60;;;1.73;;
5795;SDS011;2924;51.458;7.046;2023-06-14T09:07:35;8.63;;;2.10;;
5795;SDS011;2924;51.458;7.046;2023-06-14T09:10:10;3.17;;;1.67;;
5795;SDS011;2924;51.458;7.046;2023-06-14T09:12:37;4.20;;;1.87;;
5795;SDS011;2924;51.458;7.046;2023-06-14T09:15:06;3.53;;;1.60;;
5795;SDS011;2924;51.458;7.046;2023-06-14T09:17:33;2.20;;;1.30;;
5795;SDS011;2924;51.458;7.046;2023-06-14T09:20:03;2.20;;;1.73;;
5795;SDS011;2924;51.458;7.046;2023-06-14T09:22:33;1.70;;;1.60;;
5795;SDS011;2924;51.458;7.046;2023-06-14T09:24:59;10.17;;;1.50;;
5795;SDS011;2924;51.458;7.046;2023-06-14T09:27:25;4.57;;;1.80;;
5795;SDS011;2924;51.458;7.046;2023-06-14T09:29:52;4.30;;;1.80;;
5795;SDS011;2924;51.458;7.046;2023-06-14T09:32:18;2.90;;;1.57;;
5795;SDS011;2924;51.458;7.046;2023-06-14T09:34:45;8.93;;;1.50;;
5795;SDS011;2924;51.458;7.046;2023-06-14T09:37:10;1.57;;;1.47;;
5795;SDS011;2924;51.458;7.046;2023-06-14T09:39:48;3.37;;;1.37;;
5795;SDS011;2924;51.458;7.046;2023-06-14T09:42:18;4.20;;;1.50;;
5795;SDS011;2924;51.458;7.046;2023-06-14T09:44:47;2.50;;;1.90;;
5795;SDS011;2924;51.458;7.046;2023-06-14T09:47:16;3.40;;;1.30;;
5795;SDS011;2924;51.458;7.046;2023-06-14T09:49:43;1.27;;;0.90;;
5795;SDS011;2924;51.458;7.046;2023-06-14T09:52:19;11.43;;;1.58;;
5795;SDS011;2924;51.458;7.046;2023-06-14T09:54:47;2.05;;;1.08;;
5795;SDS011;2924;51.458;7.046;2023-06-14T09:57:20;1.73;;;1.40;;
5795;SDS011;2924;51.458;7.046;2023-06-14T09:59:47;4.10;;;1.10;;
5795;SDS011;2924;51.458;7.046;2023-06-14T10:02:28;1.60;;;1.10;;
5795;SDS011;2924;51.458;7.046;2023-06-14T10:05:00;3.93;;;1.23;;
5795;SDS011;2924;51.458;7.046;2023-06-14T10:07:32;4.10;;;1.47;;
5795;SDS011;2924;51.458;7.046;2023-06-14T10:10:05;1.70;;;1.43;;
5795;SDS011;2924;51.458;7.046;2023-06-14T10:12:31;1.20;;;0.93;;
5795;SDS011;2924;51.458;7.046;2023-06-14T10:14:57;2.63;;;1.20;;
5795;SDS011;2924;51.458;7.046;2023-06-14T10:20:21;10.87;;;1.57;;
5795;SDS011;2924;51.458;7.046;2023-06-14T10:23:07;5.50;;;0.90;;
5795;SDS011;2924;51.458;7.046;2023-06-14T10:25:35;5.70;;;1.40;;
5795;SDS011;2924;51.458;7.046;2023-06-14T10:33:26;1.17;;;1.00;;
5795;SDS011;2924;51.458;7.046;2023-06-14T10:36:06;4.10;;;1.60;;
5795;SDS011;2924;51.458;7.046;2023-06-14T10:41:34;1.63;;;1.53;;
5795;SDS011;2924;51.458;7.046;2023-06-14T10:46:39;3.80;;;0.97;;
5795;SDS011;2924;51.458;7.046;2023-06-14T10:49:05;7.80;;;1.20;;
5795;SDS011;2924;51.458;7.046;2023-06-14T10:51:44;5.05;;;1.42;;
5795;SDS011;2924;51.458;7.046;2023-06-14T10:54:14;3.92;;;1.38;;
5795;SDS011;2924;51.458;7.046;2023-06-14T10:56:51;3.70;;;1.33;;
5795;SDS011;2924;51.458;7.046;2023-06-14T10:59:18;1.92;;;1.58;;
5795;SDS011;2924;51.458;7.046;2023-06-14T11:01:57;3.78;;;1.63;;
5795;SDS011;2924;51.458;7.046;2023-06-14T11:04:52;3.03;;;1.27;;
5795;SDS011;2924;51.458;7.046;2023-06-14T11:13:01;4.73;;;1.40;;
5795;SDS011;2924;51.458;7.046;2023-06-14T11:15:31;6.60;;;1.77;;
5795;SDS011;2924;51.458;7.046;2023-06-14T11:18:01;3.97;;;1.40;;
5795;SDS011;2924;51.458;7.046;2023-06-14T11:20:31;5.53;;;1.83;;
5795;SDS011;2924;51.458;7.046;2023-06-14T11:22:59;2.00;;;1.30;;
5795;SDS011;2924;51.458;7.046;2023-06-14T11:25:25;1.73;;;1.20;;
5795;SDS011;2924;51.458;7.046;2023-06-14T11:27:53;8.75;;;1.83;;
5795;SDS011;2924;51.458;7.046;2023-06-14T11:30:19;5.80;;;1.30;;
5795;SDS011;2924;51.458;7.046;2023-06-14T11:32:52;4.03;;;1.40;;
5795;SDS011;2924;51.458;7.046;2023-06-14T11:35:19;4.50;;;1.20;;
5795;SDS011;2924;51.458;7.046;2023-06-14T11:37:48;2.27;;;1.30;;
5795;SDS011;2924;51.458;7.046;2023-06-14T11:40:17;3.10;;;1.83;;
5795;SDS011;2924;51.458;7.046;2023-06-14T11:42:43;4.55;;;1.27;;
5795;SDS011;2924;51.458;7.046;2023-06-14T11:45:09;3.80;;;0.98;;
5795;SDS011;2924;51.458;7.046;2023-06-14T11:47:36;1.63;;;1.27;;
5795;SDS011;2924;51.458;7.046;2023-06-14T11:50:04;5.38;;;1.40;;
5795;SDS011;2924;51.458;7.046;2023-06-14T11:52:31;4.00;;;1.55;;
5795;SDS011;2924;51.458;7.046;2023-06-14T11:54:57;8.30;;;1.40;;
5795;SDS011;2924;51.458;7.046;2023-06-14T11:57:24;5.40;;;1.27;;
5795;SDS011;2924;51.458;7.046;2023-06-14T11:59:50;2.63;;;1.40;;
5795;SDS011;2924;51.458;7.046;2023-06-14T12:02:16;1.60;;;1.35;;
5795;SDS011;2924;51.458;7.046;2023-06-14T12:04:42;5.35;;;1.60;;
5795;SDS011;2924;51.458;7.046;2023-06-14T12:07:12;4.47;;;1.92;;
5795;SDS011;2924;51.458;7.046;2023-06-14T12:10:04;9.43;;;1.60;;
5795;SDS011;2924;51.458;7.046;2023-06-14T12:12:34;2.15;;;1.40;;
5795;SDS011;2924;51.458;7.046;2023-06-14T12:15:03;7.13;;;1.90;;
5795;SDS011;2924;51.458;7.046;2023-06-14T12:17:35;6.38;;;2.25;;
5795;SDS011;2924;51.458;7.046;2023-06-14T12:20:06;5.40;;;1.55;;
5795;SDS011;2924;51.458;7.046;2023-06-14T12:22:36;1.90;;;1.40;;
5795;SDS011;2924;51.458;7.046;2023-06-14T12:25:03;2.70;;;1.80;;
5795;SDS011;2924;51.458;7.046;2023-06-14T12:27:29;2.42;;;1.92;;
5795;SDS011;2924;51.458;7.046;2023-06-14T12:29:59;1.48;;;1.42;;
5795;SDS011;2924;51.458;7.046;2023-06-14T12:32:28;8.90;;;1.90;;
5795;SDS011;2924;51.458;7.046;2023-06-14T12:34:54;1.65;;;1.55;;
5795;SDS011;2924;51.458;7.046;2023-06-14T12:37:20;4.60;;;1.70;;
5795;SDS011;2924;51.458;7.046;2023-06-14T12:39:46;6.85;;;1.70;;
5795;SDS011;2924;51.458;7.046;2023-06-14T12:42:12;13.48;;;1.90;;
5795;SDS011;2924;51.458;7.046;2023-06-14T12:44:39;2.60;;;1.42;;
5795;SDS011;2924;51.458;7.046;2023-06-14T12:47:06;2.72;;;1.77;;
5795;SDS011;2924;51.458;7.046;2023-06-14T12:49:32;2.50;;;1.65;;
5795;SDS011;2924;51.458;7.046;2023-06-14T12:51:58;5.28;;;1.65;;
5795;SDS011;2924;51.458;7.046;2023-06-14T12:54:24;2.10;;;1.95;;
5795;SDS011;2924;51.458;7.046;2023-06-14T12:56:51;4.20;;;1.70;;
5795;SDS011;2924;51.458;7.046;2023-06-14T12:59:17;3.92;;;1.80;;
5795;SDS011;2924;51.458;7.046;2023-06-14T13:01:43;3.53;;;1.48;;
5795;SDS011;2924;51.458;7.046;2023-06-14T13:04:09;2.72;;;1.60;;
5795;SDS011;2924;51.458;7.046;2023-06-14T13:06:35;5.20;;;1.60;;
5795;SDS011;2924;51.458;7.046;2023-06-14T13:09:01;11.80;;;2.05;;
5795;SDS011;2924;51.458;7.046;2023-06-14T13:11:28;8.52;;;2.20;;
5795;SDS011;2924;51.458;7.046;2023-06-14T13:13:54;3.08;;;1.90;;
5795;SDS011;2924;51.458;7.046;2023-06-14T13:16:20;2.50;;;2.00;;
5795;SDS011;2924;51.458;7.046;2023-06-14T13:18:45;1.80;;;1.70;;
5795;SDS011;2924;51.458;7.046;2023-06-14T13:21:11;1.70;;;1.60;;
5795;SDS011;2924;51.458;7.046;2023-06-14T13:23:36;12.75;;;2.17;;
5795;SDS011;2924;51.458;7.046;2023-06-14T13:26:02;4.13;;;1.83;;
5795;SDS011;2924;51.458;7.046;2023-06-14T13:28:28;6.88;;;1.52;;
5795;SDS011;2924;51.458;7.046;2023-06-14T13:30:53;1.60;;;1.50;;
5795;SDS011;2924;51.458;7.046;2023-06-14T13:33:20;6.70;;;1.70;;
5795;SDS011;2924;51.458;7.046;2023-06-14T13:35:46;1.63;;;1.52;;
5795;SDS011;2924;51.458;7.046;2023-06-14T13:38:13;3.67;;;1.88;;
5795;SDS011;2924;51.458;7.046;2023-06-14T13:40:40;5.93;;;2.03;;
5795;SDS011;2924;51.458;7.046;2023-06-14T13:43:05;8.57;;;1.77;;
5795;SDS011;2924;51.458;7.046;2023-06-14T13:45:31;2.70;;;1.90;;
5795;SDS011;2924;51.458;7.046;2023-06-14T13:47:56;1.73;;;1.63;;
5795;SDS011;2924;51.458;7.046;2023-06-14T13:50:22;5.05;;;1.65;;
5795;SDS011;2924;51.458;7.046;2023-06-14T13:52:48;8.23;;;2.28;;
5795;SDS011;2924;51.458;7.046;2023-06-14T13:55:13;7.30;;;2.03;;
5795;SDS011;2924;51.458;7.046;2023-06-14T13:57:39;5.07;;;1.92;;
5795;SDS011;2924;51.458;7.046;2023-06-14T14:00:05;1.80;;;1.70;;
5795;SDS011;2924;51.458;7.046;2023-06-14T14:02:31;4.90;;;1.83;;
5795;SDS011;2924;51.458;7.046;2023-06-14T14:04:56;6.03;;;1.73;;
5795;SDS011;2924;51.458;7.046;2023-06-14T14:07:22;2.17;;;1.97;;
5795;SDS011;2924;51.458;7.046;2023-06-14T14:09:48;1.83;;;1.33;;
5795;SDS011;2924;51.458;7.046;2023-06-14T14:12:14;5.30;;;1.60;;
5795;SDS011;2924;51.458;7.046;2023-06-14T14:14:40;1.40;;;1.30;;
5795;SDS011;2924;51.458;7.046;2023-06-14T14:17:06;2.40;;;2.10;;
5795;SDS011;2924;51.458;7.046;2023-06-14T14:19:32;12.03;;;2.00;;
5795;SDS011;2924;51.458;7.046;2023-06-14T14:21:58;3.10;;;1.90;;
5795;SDS011;2924;51.458;7.046;2023-06-14T14:24:23;2.27;;;2.07;;
5795;SDS011;2924;51.458;7.046;2023-06-14T14:26:51;5.17;;;2.07;;
5795;SDS011;2924;51.458;7.046;2023-06-14T14:29:18;5.43;;;2.30;;
5795;SDS011;2924;51.458;7.046;2023-06-14T14:31:47;1.70;;;1.60;;
5795;SDS011;2924;51.458;7.046;2023-06-14T14:34:13;1.30;;;1.20;;
5795;SDS011;2924;51.458;7.046;2023-06-14T14:36:39;2.30;;;2.10;;
5795;SDS011;2924;51.458;7.046;2023-06-14T14:39:07;3.17;;;1.77;;
5795;SDS011;2924;51.458;7.046;2023-06-14T14:41:33;1.73;;;1.63;;
5795;SDS011;2924;51.458;7.046;2023-06-14T14:43:59;9.27;;;2.07;;
5795;SDS011;2924;51.458;7.046;2023-06-14T14:46:25;3.67;;;2.53;;
5795;SDS011;2924;51.458;7.046;2023-06-14T14:48:52;2.27;;;2.00;;
5795;SDS011;2924;51.458;7.046;2023-06-14T14:51:18;1.60;;;1.50;;
5795;SDS011;2924;51.458;7.046;2023-06-14T14:53:43;2.90;;;2.03;;
5795;SDS011;2924;51.458;7.046;2023-06-14T14:56:09;1.83;;;1.73;;
5795;SDS011;2924;51.458;7.046;2023-06-14T14:58:36;4.03;;;2.50;;
5795;SDS011;2924;51.458;7.046;2023-06-14T15:01:02;2.83;;;1.80;;
5795;SDS011;2924;51.458;7.046;2023-06-14T15:03:30;8.37;;;2.40;;
5795;SDS011;2924;51.458;7.046;2023-06-14T15:05:56;9.90;;;1.90;;
5795;SDS011;2924;51.458;7.046;2023-06-14T15:08:21;9.73;;;2.50;;
5795;SDS011;2924;51.458;7.046;2023-06-14T15:10:47;2.30;;;2.20;;
5795;SDS011;2924;51.458;7.046;2023-06-14T15:13:13;2.07;;;1.93;;
5795;SDS011;2924;51.458;7.046;2023-06-14T15:15:39;2.60;;;2.40;;
5795;SDS011;2924;51.458;7.046;2023-06-14T15:18:04;1.87;;;1.73;;
5795;SDS011;2924;51.458;7.046;2023-06-14T15:20:30;1.67;;;1.57;;
5795;SDS011;2924;51.458;7.046;2023-06-14T15:22:56;7.50;;;2.10;;
5795;SDS011;2924;51.458;7.046;2023-06-14T15:25:26;5.43;;;2.00;;
5795;SDS011;2924;51.458;7.046;2023-06-14T15:27:52;4.00;;;1.90;;
5795;SDS011;2924;51.458;7.046;2023-06-14T15:30:18;6.00;;;2.80;;
5795;SDS011;2924;51.458;7.046;2023-06-14T15:32:44;8.53;;;2.50;;
5795;SDS011;2924;51.458;7.046;2023-06-14T15:35:09;2.70;;;2.30;;
5795;SDS011;2924;51.458;7.046;2023-06-14T15:37:37;7.00;;;2.30;;